< < Back
Terminal Aerodrome Forecast


Current Version              Previous Versions:   1  2  3  4  5  6  7  8  9  

Terminal Aerodrome Forecast

812
FTUS42 KJAX 301139
TAFGNV
TAF
KGNV 301139Z 3012/0112 VRB03KT 6SM BR SCT250
     FM301400 15007KT P6SM BKN250
     FM301900 15009KT P6SM VCTS SCT045CB SCT250
     FM010200 VRB02KT P6SM SCT060 SCT250
     FM010800 VRB02KT 5SM BR SCT040 SCT250=



Latest METAR

311
SAUS70 KWBC 302000 RRB
MTRGNV
METAR KGNV 301953Z 16008KT 10SM FEW060 31/17 A2993 RMK AO2 SLP131
T03110172


USA.gov is the U.S. government's official web portal to all federal, state and local government web resources and services.